sensor_id;sensor_type;location;lat;lon;timestamp;pressure;altitude;pressure_sealevel;temperature;humidity
45894;BME280;31603;51.148;16.932;2023-11-19T13:07:08;99361.13;;;6.03;100.00
45894;BME280;31603;51.148;16.932;2023-11-19T13:09:35;99362.16;;;6.02;100.00
45894;BME280;31603;51.148;16.932;2023-11-19T13:12:12;99359.50;;;6.15;100.00
45894;BME280;31603;51.148;16.932;2023-11-19T13:14:39;99358.22;;;6.11;100.00
45894;BME280;31603;51.148;16.932;2023-11-19T13:17:07;99355.88;;;6.56;100.00
45894;BME280;31603;51.148;16.932;2023-11-19T13:19:34;99345.75;;;6.37;100.00
45894;BME280;31603;51.148;16.932;2023-11-19T13:22:01;99341.56;;;6.41;100.00
45894;BME280;31603;51.148;16.932;2023-11-19T13:24:29;99331.50;;;6.48;100.00
45894;BME280;31603;51.148;16.932;2023-11-19T13:26:55;99339.13;;;6.72;100.00
45894;BME280;31603;51.148;16.932;2023-11-19T13:29:22;99338.31;;;6.92;100.00
45894;BME280;31603;51.148;16.932;2023-11-19T13:31:49;99326.09;;;7.67;100.00
45894;BME280;31603;51.148;16.932;2023-11-19T13:34:16;99321.47;;;7.68;100.00
45894;BME280;31603;51.148;16.932;2023-11-19T13:36:42;99318.31;;;7.64;100.00
45894;BME280;31603;51.148;16.932;2023-11-19T13:39:09;99309.72;;;7.41;100.00
45894;BME280;31603;51.148;16.932;2023-11-19T13:41:38;99317.66;;;7.62;100.00
45894;BME280;31603;51.148;16.932;2023-11-19T13:44:05;99318.50;;;7.76;100.00
45894;BME280;31603;51.148;16.932;2023-11-19T13:46:32;99316.66;;;8.28;100.00
45894;BME280;31603;51.148;16.932;2023-11-19T13:48:59;99315.72;;;8.86;100.00
45894;BME280;31603;51.148;16.932;2023-11-19T13:51:25;99312.53;;;8.89;100.00
45894;BME280;31603;51.148;16.932;2023-11-19T13:53:52;99306.34;;;8.68;100.00
45894;BME280;31603;51.148;16.932;2023-11-19T13:56:19;99301.44;;;9.09;100.00
45894;BME280;31603;51.148;16.932;2023-11-19T13:58:47;99297.53;;;9.67;100.00
45894;BME280;31603;51.148;16.932;2023-11-19T14:01:14;99291.09;;;10.65;100.00
45894;BME280;31603;51.148;16.932;2023-11-19T14:03:41;99288.00;;;10.24;100.00
45894;BME280;31603;51.148;16.932;2023-11-19T14:06:08;99292.81;;;10.47;100.00
45894;BME280;31603;51.148;16.932;2023-11-19T14:08:35;99286.88;;;9.77;100.00
45894;BME280;31603;51.148;16.932;2023-11-19T14:11:01;99286.22;;;9.56;100.00
45894;BME280;31603;51.148;16.932;2023-11-19T14:13:28;99288.50;;;9.16;100.00
45894;BME280;31603;51.148;16.932;2023-11-19T14:15:56;99278.59;;;8.58;100.00
45894;BME280;31603;51.148;16.932;2023-11-19T14:18:23;99306.84;;;8.52;100.00
45894;BME280;31603;51.148;16.932;2023-11-19T14:20:50;99307.78;;;8.39;100.00
45894;BME280;31603;51.148;16.932;2023-11-19T14:23:16;99317.09;;;8.18;100.00
45894;BME280;31603;51.148;16.932;2023-11-19T14:25:43;99308.53;;;8.02;100.00
45894;BME280;31603;51.148;16.932;2023-11-19T14:28:09;99307.72;;;7.88;100.00
45894;BME280;31603;51.148;16.932;2023-11-19T14:30:35;99309.69;;;7.67;100.00
45894;BME280;31603;51.148;16.932;2023-11-19T14:33:05;99308.44;;;7.37;100.00
45894;BME280;31603;51.148;16.932;2023-11-19T14:35:32;99308.44;;;7.37;100.00
45894;BME280;31603;51.148;16.932;2023-11-19T14:37:59;99304.03;;;7.22;100.00
45894;BME280;31603;51.148;16.932;2023-11-19T14:40:30;99313.28;;;6.82;100.00
45894;BME280;31603;51.148;16.932;2023-11-19T14:42:56;99316.00;;;6.82;100.00
45894;BME280;31603;51.148;16.932;2023-11-19T14:45:23;99308.88;;;6.81;100.00
45894;BME280;31603;51.148;16.932;2023-11-19T14:47:50;99311.38;;;6.69;100.00
45894;BME280;31603;51.148;16.932;2023-11-19T14:50:19;99308.63;;;6.62;100.00
45894;BME280;31603;51.148;16.932;2023-11-19T14:52:46;99318.94;;;6.67;100.00
45894;BME280;31603;51.148;16.932;2023-11-19T14:55:12;99329.25;;;6.78;100.00
45894;BME280;31603;51.148;16.932;2023-11-19T14:57:39;99324.59;;;6.65;100.00
45894;BME280;31603;51.148;16.932;2023-11-19T15:00:07;99328.81;;;6.74;100.00
45894;BME280;31603;51.148;16.932;2023-11-19T15:02:39;99331.13;;;6.78;100.00
45894;BME280;31603;51.148;16.932;2023-11-19T15:05:06;99324.00;;;6.90;100.00
45894;BME280;31603;51.148;16.932;2023-11-19T15:07:36;99328.22;;;6.99;100.00
45894;BME280;31603;51.148;16.932;2023-11-19T15:10:03;99336.66;;;6.97;100.00
45894;BME280;31603;51.148;16.932;2023-11-19T15:12:34;99329.28;;;7.11;100.00
45894;BME280;31603;51.148;16.932;2023-11-19T15:15:06;99327.41;;;7.25;100.00
45894;BME280;31603;51.148;16.932;2023-11-19T15:17:33;99325.50;;;7.26;100.00
45894;BME280;31603;51.148;16.932;2023-11-19T15:19:59;99336.44;;;7.39;100.00
45894;BME280;31603;51.148;16.932;2023-11-19T15:22:26;99333.47;;;7.40;100.00
45894;BME280;31603;51.148;16.932;2023-11-19T15:24:54;99337.09;;;7.41;100.00
45894;BME280;31603;51.148;16.932;2023-11-19T15:27:21;99342.97;;;7.38;100.00
45894;BME280;31603;51.148;16.932;2023-11-19T15:29:48;99345.47;;;7.33;100.00
45894;BME280;31603;51.148;16.932;2023-11-19T15:32:14;99345.91;;;7.50;100.00
45894;BME280;31603;51.148;16.932;2023-11-19T15:34:41;99345.06;;;7.49;100.00
45894;BME280;31603;51.148;16.932;2023-11-19T15:37:08;99346.31;;;7.60;100.00
45894;BME280;31603;51.148;16.932;2023-11-19T15:39:37;99351.59;;;7.48;100.00
45894;BME280;31603;51.148;16.932;2023-11-19T15:42:05;99363.59;;;7.60;100.00
45894;BME280;31603;51.148;16.932;2023-11-19T15:44:32;99353.47;;;7.67;100.00
45894;BME280;31603;51.148;16.932;2023-11-19T15:46:58;99355.75;;;7.84;100.00
45894;BME280;31603;51.148;16.932;2023-11-19T15:49:25;99357.22;;;7.93;100.00
45894;BME280;31603;51.148;16.932;2023-11-19T15:51:52;99351.31;;;8.03;100.00
45894;BME280;31603;51.148;16.932;2023-11-19T15:54:19;99343.25;;;8.14;100.00
45894;BME280;31603;51.148;16.932;2023-11-19T15:56:46;99335.47;;;8.11;100.00
45894;BME280;31603;51.148;16.932;2023-11-19T15:59:14;99337.78;;;8.14;100.00
45894;BME280;31603;51.148;16.932;2023-11-19T16:01:40;99336.25;;;8.25;100.00
45894;BME280;31603;51.148;16.932;2023-11-19T16:04:07;99344.47;;;8.25;100.00
45894;BME280;31603;51.148;16.932;2023-11-19T16:06:34;99344.06;;;8.28;100.00
45894;BME280;31603;51.148;16.932;2023-11-19T16:09:01;99344.88;;;8.35;100.00
45894;BME280;31603;51.148;16.932;2023-11-19T16:11:28;99345.91;;;8.41;100.00
45894;BME280;31603;51.148;16.932;2023-11-19T16:13:55;99329.69;;;8.46;100.00
45894;BME280;31603;51.148;16.932;2023-11-19T16:16:23;99342.75;;;8.44;100.00
45894;BME280;31603;51.148;16.932;2023-11-19T16:18:50;99327.16;;;8.38;100.00
45894;BME280;31603;51.148;16.932;2023-11-19T16:21:16;99341.06;;;8.36;100.00
45894;BME280;31603;51.148;16.932;2023-11-19T16:23:43;99346.56;;;8.30;100.00
45894;BME280;31603;51.148;16.932;2023-11-19T16:26:10;99343.25;;;8.14;100.00
45894;BME280;31603;51.148;16.932;2023-11-19T16:28:37;99341.63;;;7.93;100.00
45894;BME280;31603;51.148;16.932;2023-11-19T16:31:06;99341.22;;;7.77;100.00
45894;BME280;31603;51.148;16.932;2023-11-19T16:33:34;99345.25;;;7.67;100.00
45894;BME280;31603;51.148;16.932;2023-11-19T16:36:01;99347.59;;;7.57;100.00
45894;BME280;31603;51.148;16.932;2023-11-19T16:38:27;99348.03;;;7.34;100.00
45894;BME280;31603;51.148;16.932;2023-11-19T16:40:55;99344.66;;;7.39;100.00
45894;BME280;31603;51.148;16.932;2023-11-19T16:43:23;99342.97;;;7.38;100.00
45894;BME280;31603;51.148;16.932;2023-11-19T16:45:53;99347.19;;;7.34;100.00
45894;BME280;31603;51.148;16.932;2023-11-19T16:48:20;99342.56;;;7.28;100.00
45894;BME280;31603;51.148;16.932;2023-11-19T16:50:48;99345.91;;;7.36;100.00
45894;BME280;31603;51.148;16.932;2023-11-19T16:53:15;99336.03;;;7.42;100.00
45894;BME280;31603;51.148;16.932;2023-11-19T16:55:42;99337.28;;;7.39;100.00
45894;BME280;31603;51.148;16.932;2023-11-19T16:58:09;99341.09;;;7.45;100.00
45894;BME280;31603;51.148;16.932;2023-11-19T17:00:36;99347.59;;;7.51;100.00
45894;BME280;31603;51.148;16.932;2023-11-19T17:03:03;99343.78;;;7.58;100.00
45894;BME280;31603;51.148;16.932;2023-11-19T17:05:30;99338.72;;;7.55;100.00
45894;BME280;31603;51.148;16.932;2023-11-19T17:07:59;99342.09;;;7.57;100.00
45894;BME280;31603;51.148;16.932;2023-11-19T17:10:26;99340.84;;;7.66;100.00
45894;BME280;31603;51.148;16.932;2023-11-19T17:12:53;99342.53;;;7.61;100.00
45894;BME280;31603;51.148;16.932;2023-11-19T17:15:19;99344.84;;;7.70;100.00
45894;BME280;31603;51.148;16.932;2023-11-19T17:17:46;99339.78;;;7.81;100.00
45894;BME280;31603;51.148;16.932;2023-11-19T17:20:13;99339.13;;;7.85;100.00
45894;BME280;31603;51.148;16.932;2023-11-19T17:22:40;99343.97;;;7.77;100.00
45894;BME280;31603;51.148;16.932;2023-11-19T17:25:09;99341.47;;;7.75;100.00
45894;BME280;31603;51.148;16.932;2023-11-19T17:27:36;99342.94;;;7.78;100.00
45894;BME280;31603;51.148;16.932;2023-11-19T17:30:04;99340.81;;;7.73;100.00
45894;BME280;31603;51.148;16.932;2023-11-19T17:32:31;99351.34;;;7.69;100.00
45894;BME280;31603;51.148;16.932;2023-11-19T17:34:58;99346.75;;;7.50;100.00
45894;BME280;31603;51.148;16.932;2023-11-19T17:37:25;99352.03;;;7.45;100.00
45894;BME280;31603;51.148;16.932;2023-11-19T17:39:52;99350.97;;;7.39;100.00
45894;BME280;31603;51.148;16.932;2023-11-19T17:42:20;99352.44;;;7.42;100.00
45894;BME280;31603;51.148;16.932;2023-11-19T17:44:48;99356.00;;;7.29;100.00
45894;BME280;31603;51.148;16.932;2023-11-19T17:47:14;99351.41;;;7.23;100.00
45894;BME280;31603;51.148;16.932;2023-11-19T17:49:41;99360.84;;;7.27;100.00
45894;BME280;31603;51.148;16.932;2023-11-19T17:52:08;99356.44;;;7.19;100.00
45894;BME280;31603;51.148;16.932;2023-11-19T17:54:35;99365.47;;;7.33;100.00
45894;BME280;31603;51.148;16.932;2023-11-19T17:57:03;99351.41;;;7.23;100.00
45894;BME280;31603;51.148;16.932;2023-11-19T17:59:31;99352.22;;;7.23;100.00
45894;BME280;31603;51.148;16.932;2023-11-19T18:01:58;99354.97;;;7.30;100.00
45894;BME280;31603;51.148;16.932;2023-11-19T18:04:28;99347.78;;;7.29;100.00
45894;BME280;31603;51.148;16.932;2023-11-19T18:06:55;99355.16;;;7.22;100.00
45894;BME280;31603;51.148;16.932;2023-11-19T18:09:21;99355.38;;;7.27;100.00
45894;BME280;31603;51.148;16.932;2023-11-19T18:11:48;99345.69;;;7.24;100.00
45894;BME280;31603;51.148;16.932;2023-11-19T18:14:17;99350.34;;;7.31;100.00
45894;BME280;31603;51.148;16.932;2023-11-19T18:16:46;99348.22;;;7.33;100.00
45894;BME280;31603;51.148;16.932;2023-11-19T18:19:12;99345.72;;;7.31;100.00
45894;BME280;31603;51.148;16.932;2023-11-19T18:21:39;99358.13;;;7.34;100.00
45894;BME280;31603;51.148;16.932;2023-11-19T18:24:06;99349.09;;;7.27;100.00
45894;BME280;31603;51.148;16.932;2023-11-19T18:26:34;99347.38;;;7.26;100.00
45894;BME280;31603;51.148;16.932;2023-11-19T18:29:01;99350.53;;;7.29;100.00
45894;BME280;31603;51.148;16.932;2023-11-19T18:31:28;99357.06;;;7.35;100.00
45894;BME280;31603;51.148;16.932;2023-11-19T18:33:56;99358.13;;;7.34;100.00
45894;BME280;31603;51.148;16.932;2023-11-19T18:36:22;99348.03;;;7.34;100.00
45894;BME280;31603;51.148;16.932;2023-11-19T18:38:50;99353.69;;;7.39;100.00
45894;BME280;31603;51.148;16.932;2023-11-19T18:41:16;99352.22;;;7.37;100.00
45894;BME280;31603;51.148;16.932;2023-11-19T18:43:43;99349.28;;;7.45;100.00
45894;BME280;31603;51.148;16.932;2023-11-19T18:46:10;99358.75;;;7.49;100.00
45894;BME280;31603;51.148;16.932;2023-11-19T18:48:38;99350.53;;;7.42;100.00
45894;BME280;31603;51.148;16.932;2023-11-19T18:51:07;99354.53;;;7.53;100.00
45894;BME280;31603;51.148;16.932;2023-11-19T18:53:39;99354.13;;;7.43;100.00
45894;BME280;31603;51.148;16.932;2023-11-19T18:56:06;99363.16;;;7.70;100.00
45894;BME280;31603;51.148;16.932;2023-11-19T18:58:33;99362.09;;;7.78;100.00
45894;BME280;31603;51.148;16.932;2023-11-19T19:01:01;99361.44;;;7.89;100.00
45894;BME280;31603;51.148;16.932;2023-11-19T19:03:27;99367.16;;;7.81;100.00
45894;BME280;31603;51.148;16.932;2023-11-19T19:05:56;99363.34;;;7.88;100.00
45894;BME280;31603;51.148;16.932;2023-11-19T19:08:24;99357.22;;;7.93;100.00
45894;BME280;31603;51.148;16.932;2023-11-19T19:10:51;99363.28;;;7.95;100.00
45894;BME280;31603;51.148;16.932;2023-11-19T19:13:18;99361.22;;;7.90;100.00
45894;BME280;31603;51.148;16.932;2023-11-19T19:15:44;99360.53;;;8.08;100.00
45894;BME280;31603;51.148;16.932;2023-11-19T19:18:11;99349.84;;;7.93;100.00
45894;BME280;31603;51.148;16.932;2023-11-19T19:20:38;99351.75;;;7.80;100.00
45894;BME280;31603;51.148;16.932;2023-11-19T19:23:05;99350.94;;;7.66;100.00
45894;BME280;31603;51.148;16.932;2023-11-19T19:25:33;99350.09;;;7.65;100.00
45894;BME280;31603;51.148;16.932;2023-11-19T19:27:59;99348.44;;;7.38;100.00
45894;BME280;31603;51.148;16.932;2023-11-19T19:30:26;99356.00;;;7.42;100.00
45894;BME280;31603;51.148;16.932;2023-11-19T19:32:53;99365.06;;;7.36;100.00
45894;BME280;31603;51.148;16.932;2023-11-19T19:35:19;99358.09;;;7.47;100.00
45894;BME280;31603;51.148;16.932;2023-11-19T19:37:49;99359.38;;;7.38;100.00
45894;BME280;31603;51.148;16.932;2023-11-19T19:40:16;99353.91;;;7.38;100.00
45894;BME280;31603;51.148;16.932;2023-11-19T19:42:44;99361.50;;;7.49;100.00
45894;BME280;31603;51.148;16.932;2023-11-19T19:45:11;99360.22;;;7.45;100.00
45894;BME280;31603;51.148;16.932;2023-11-19T19:47:38;99365.91;;;7.50;100.00
45894;BME280;31603;51.148;16.932;2023-11-19T19:50:05;99367.16;;;7.67;100.00
45894;BME280;31603;51.148;16.932;2023-11-19T19:52:36;99372.81;;;7.72;100.00
45894;BME280;31603;51.148;16.932;2023-11-19T19:55:04;99364.41;;;7.74;100.00
45894;BME280;31603;51.148;16.932;2023-11-19T19:57:32;99377.44;;;7.79;100.00
45894;BME280;31603;51.148;16.932;2023-11-19T20:00:04;99379.97;;;7.87;100.00
45894;BME280;31603;51.148;16.932;2023-11-19T20:02:35;99372.16;;;7.84;100.00
45894;BME280;31603;51.148;16.932;2023-11-19T20:05:01;99369.19;;;7.99;100.00
45894;BME280;31603;51.148;16.932;2023-11-19T20:07:29;99366.03;;;8.02;100.00
45894;BME280;31603;51.148;16.932;2023-11-19T20:09:56;99369.81;;;8.07;100.00
45894;BME280;31603;51.148;16.932;2023-11-19T20:12:23;99376.94;;;8.15;100.00
45894;BME280;31603;51.148;16.932;2023-11-19T20:14:53;99371.06;;;8.05;100.00
45894;BME280;31603;51.148;16.932;2023-11-19T20:17:21;99375.91;;;8.09;100.00
45894;BME280;31603;51.148;16.932;2023-11-19T20:19:47;99381.34;;;8.23;100.00
45894;BME280;31603;51.148;16.932;2023-11-19T20:22:14;99369.16;;;8.18;100.00
45894;BME280;31603;51.148;16.932;2023-11-19T20:24:42;99368.31;;;8.18;100.00
45894;BME280;31603;51.148;16.932;2023-11-19T20:27:08;99373.09;;;8.36;100.00
45894;BME280;31603;51.148;16.932;2023-11-19T20:29:40;99369.72;;;8.40;100.00
45894;BME280;31603;51.148;16.932;2023-11-19T20:32:07;99380.94;;;8.26;100.00
45894;BME280;31603;51.148;16.932;2023-11-19T20:34:35;99372.28;;;8.29;100.00
45894;BME280;31603;51.148;16.932;2023-11-19T20:37:02;99375.63;;;8.31;100.00
45894;BME280;31603;51.148;16.932;2023-11-19T20:39:30;99375.63;;;8.44;100.00
45894;BME280;31603;51.148;16.932;2023-11-19T20:41:56;99383.59;;;8.52;100.00
45894;BME280;31603;51.148;16.932;2023-11-19T20:44:23;99376.25;;;8.46;100.00
45894;BME280;31603;51.148;16.932;2023-11-19T20:46:51;99368.78;;;8.60;100.00
45894;BME280;31603;51.148;16.932;2023-11-19T20:49:17;99367.16;;;8.52;100.00
45894;BME280;31603;51.148;16.932;2023-11-19T20:51:47;99365.75;;;8.75;100.00
45894;BME280;31603;51.148;16.932;2023-11-19T20:54:15;99381.75;;;8.84;100.00
45894;BME280;31603;51.148;16.932;2023-11-19T20:56:42;99371.56;;;8.98;100.00
45894;BME280;31603;51.148;16.932;2023-11-19T20:59:09;99363.25;;;9.11;100.00
45894;BME280;31603;51.148;16.932;2023-11-19T21:01:35;99358.53;;;9.19;100.00
45894;BME280;31603;51.148;16.932;2023-11-19T21:04:03;99368.25;;;9.14;100.00
45894;BME280;31603;51.148;16.932;2023-11-19T21:06:30;99365.47;;;9.21;100.00
45894;BME280;31603;51.148;16.932;2023-11-19T21:08:59;99363.00;;;9.13;100.00
45894;BME280;31603;51.148;16.932;2023-11-19T21:11:27;99366.38;;;9.15;100.00
45894;BME280;31603;51.148;16.932;2023-11-19T21:13:54;99364.28;;;9.10;100.00
45894;BME280;31603;51.148;16.932;2023-11-19T21:16:21;99366.00;;;9.11;100.00
45894;BME280;31603;51.148;16.932;2023-11-19T21:18:48;99370.59;;;9.11;100.00
45894;BME280;31603;51.148;16.932;2023-11-19T21:21:14;99367.69;;;9.06;100.00
45894;BME280;31603;51.148;16.932;2023-11-19T21:23:41;99372.00;;;8.95;100.00
45894;BME280;31603;51.148;16.932;2023-11-19T21:26:09;99364.72;;;9.07;100.00
45894;BME280;31603;51.148;16.932;2023-11-19T21:28:36;99371.81;;;8.90;100.00
45894;BME280;31603;51.148;16.932;2023-11-19T21:31:03;99377.91;;;8.92;100.00
45894;BME280;31603;51.148;16.932;2023-11-19T21:33:29;99373.75;;;8.83;100.00
45894;BME280;31603;51.148;16.932;2023-11-19T21:35:56;99372.94;;;8.76;100.00
45894;BME280;31603;51.148;16.932;2023-11-19T21:38:24;99382.22;;;8.75;100.00
45894;BME280;31603;51.148;16.932;2023-11-19T21:40:52;99373.00;;;8.62;100.00
45894;BME280;31603;51.148;16.932;2023-11-19T21:43:21;99378.50;;;8.56;100.00
45894;BME280;31603;51.148;16.932;2023-11-19T21:45:48;99372.38;;;8.60;100.00
45894;BME280;31603;51.148;16.932;2023-11-19T21:48:14;99376.38;;;8.64;100.00
45894;BME280;31603;51.148;16.932;2023-11-19T21:50:41;99387.34;;;8.64;100.00
45894;BME280;31603;51.148;16.932;2023-11-19T21:53:08;99386.97;;;8.54;100.00
45894;BME280;31603;51.148;16.932;2023-11-19T21:55:35;99385.25;;;8.60;100.00
45894;BME280;31603;51.148;16.932;2023-11-19T21:58:01;99379.34;;;8.56;100.00
45894;BME280;31603;51.148;16.932;2023-11-19T22:00:30;99381.50;;;8.54;100.00
45894;BME280;31603;51.148;16.932;2023-11-19T22:02:57;99382.78;;;8.45;100.00
45894;BME280;31603;51.148;16.932;2023-11-19T22:05:24;99380.47;;;8.35;100.00
45894;BME280;31603;51.148;16.932;2023-11-19T22:07:51;99384.28;;;8.41;100.00
45894;BME280;31603;51.148;16.932;2023-11-19T22:10:18;99390.19;;;8.38;100.00
45894;BME280;31603;51.148;16.932;2023-11-19T22:12:45;99390.81;;;8.27;100.00
45894;BME280;31603;51.148;16.932;2023-11-19T22:15:11;99382.34;;;8.35;100.00
45894;BME280;31603;51.148;16.932;2023-11-19T22:17:39;99386.41;;;8.39;100.00
45894;BME280;31603;51.148;16.932;2023-11-19T22:20:07;99384.28;;;8.41;100.00
45894;BME280;31603;51.148;16.932;2023-11-19T22:22:35;99372.06;;;8.30;100.00
45894;BME280;31603;51.148;16.932;2023-11-19T22:25:02;99385.75;;;8.24;100.00
45894;BME280;31603;51.148;16.932;2023-11-19T22:27:29;99381.13;;;8.24;100.00
45894;BME280;31603;51.148;16.932;2023-11-19T22:29:56;99384.94;;;8.16;100.00
45894;BME280;31603;51.148;16.932;2023-11-19T22:32:22;99375.69;;;8.17;100.00
45894;BME280;31603;51.148;16.932;2023-11-19T22:34:52;99372.06;;;8.24;100.00
45894;BME280;31603;51.148;16.932;2023-11-19T22:37:19;99380.72;;;8.20;100.00
45894;BME280;31603;51.148;16.932;2023-11-19T22:39:46;99379.03;;;8.19;100.00
45894;BME280;31603;51.148;16.932;2023-11-19T22:42:12;99378.03;;;8.07;100.00
45894;BME280;31603;51.148;16.932;2023-11-19T22:44:39;99374.47;;;8.07;100.00
45894;BME280;31603;51.148;16.932;2023-11-19T22:47:05;99378.22;;;8.06;100.00
45894;BME280;31603;51.148;16.932;2023-11-19T22:49:33;99377.41;;;7.99;100.00
45894;BME280;31603;51.148;16.932;2023-11-19T22:52:02;99379.09;;;8.00;100.00
45894;BME280;31603;51.148;16.932;2023-11-19T22:54:29;99383.28;;;8.02;100.00
45894;BME280;31603;51.148;16.932;2023-11-19T22:56:56;99374.66;;;8.05;100.00
45894;BME280;31603;51.148;16.932;2023-11-19T22:59:23;99381.19;;;8.04;100.00
45894;BME280;31603;51.148;16.932;2023-11-19T23:01:49;99381.00;;;7.99;100.00
45894;BME280;31603;51.148;16.932;2023-11-19T23:04:16;99366.25;;;7.93;100.00
45894;BME280;31603;51.148;16.932;2023-11-19T23:06:43;99383.13;;;7.90;100.00
45894;BME280;31603;51.148;16.932;2023-11-19T23:09:11;99382.69;;;7.87;100.00
45894;BME280;31603;51.148;16.932;2023-11-19T23:11:39;99381.63;;;7.88;100.00
45894;BME280;31603;51.148;16.932;2023-11-19T23:14:06;99377.03;;;7.82;100.00
45894;BME280;31603;51.148;16.932;2023-11-19T23:16:36;99377.44;;;7.92;100.00
45894;BME280;31603;51.148;16.932;2023-11-19T23:19:03;99368.78;;;7.95;100.00
45894;BME280;31603;51.148;16.932;2023-11-19T23:21:30;99361.00;;;7.92;100.00
45894;BME280;31603;51.148;16.932;2023-11-19T23:23:57;99369.41;;;8.10;100.00
45894;BME280;31603;51.148;16.932;2023-11-19T23:26:25;99373.63;;;8.00;100.00
45894;BME280;31603;51.148;16.932;2023-11-19T23:28:52;99366.84;;;8.09;100.00
45894;BME280;31603;51.148;16.932;2023-11-19T23:31:19;99376.94;;;8.15;100.00
45894;BME280;31603;51.148;16.932;2023-11-19T23:33:47;99366.84;;;8.15;100.00
45894;BME280;31603;51.148;16.932;2023-11-19T23:36:14;99370.00;;;8.12;100.00
45894;BME280;31603;51.148;16.932;2023-11-19T23:38:40;99374.47;;;8.07;100.00
45894;BME280;31603;51.148;16.932;2023-11-19T23:41:07;99378.22;;;8.12;100.00
45894;BME280;31603;51.148;16.932;2023-11-19T23:43:35;99375.88;;;8.23;100.00
45894;BME280;31603;51.148;16.932;2023-11-19T23:46:03;99371.88;;;8.25;100.00
45894;BME280;31603;51.148;16.932;2023-11-19T23:48:31;99379.44;;;8.23;100.00
45894;BME280;31603;51.148;16.932;2023-11-19T23:50:58;99381.50;;;8.34;100.00
45894;BME280;31603;51.148;16.932;2023-11-19T23:53:24;99365.09;;;8.41;100.00
45894;BME280;31603;51.148;16.932;2023-11-19T23:55:51;99372.22;;;8.49;100.00
45894;BME280;31603;51.148;16.932;2023-11-19T23:58:18;99372.19;;;8.55;100.00
